Archival Weather

Norman Y Mineta San Jose Intl

San Jose, California (KSJC)

Report from: Saturday, February 10, 2024 6:53 AM PST
Current time: Friday, June 14, 2024 4:20 AM PDT

Current weather – Weather history – Daily summaries
Weather forecast

Temperature5.6°C (42.1°F)
Dew point3.3°C (37.9°F)
Winds Calm
Visibility10 mi. (16.1 km)
Clouds Few clouds 1,000 ft. (305 m)
Altimeter30.13 in.Hg (1020 mB)
Relative humidity85 %
Density altitude-1,250 ft. (-381 m)
Sea-level pressure102.0 kPa (1020 mB, 30.12 in.Hg)
Remarks Automated weather observing station with precipitation discriminator
Pressure rising more quickly
Flight conditions Visual Meteorological Conditions
Raw dataKSJC 101453Z 00000KT 10SM FEW010 06/03 A3013 RMK AO2 SLP200 T00560033 53008
An error has occurred. This application may no longer respond until reloaded. Reload 🗙